Time;durP1;ratioP1;P1;durP2;ratioP2;P2;SDS_P1;SDS_P2;PMS_P1;PMS_P2;Temp;Humidity;BMP_temperature;BMP_pressure;BME280_temperature;BME280_humidity;BME280_pressure;Samples;Min_cycle;Max_cycle;Signal;HPM_P1;HPM_P2
2023/03/13 00:01:28;;;;;;;16.45;3.25;;;;;;;9.46;87.58;100192.69;5116186;27;20048;-77
2023/03/13 00:03:56;;;;;;;18.52;2.90;;;;;;;9.46;87.98;100187.41;5118055;27;20066;-77
2023/03/13 00:06:33;;;;;;;17.25;3.63;;;;;;;9.45;88.13;100183.09;5110588;27;20125;-76
2023/03/13 00:09:03;;;;;;;20.15;4.22;;;;;;;9.43;88.46;100178.78;5127869;27;20039;-76
2023/03/13 00:11:31;;;;;;;16.17;3.50;;;;;;;9.42;88.74;100167.41;5129350;27;20119;-76
2023/03/13 00:14:01;;;;;;;18.60;3.28;;;;;;;9.44;88.99;100156.81;5127923;27;20036;-75
2023/03/13 00:16:31;;;;;;;17.30;3.35;;;;;;;9.44;88.85;100157.69;5125671;27;20047;-73
2023/03/13 00:18:58;;;;;;;18.58;3.35;;;;;;;9.44;89.13;100147.19;5126769;27;20127;-73
2023/03/13 00:21:29;;;;;;;15.40;3.22;;;;;;;9.45;89.06;100148.03;5127566;27;20616;-74
2023/03/13 00:23:59;;;;;;;19.80;3.95;;;;;;;9.44;89.23;100139.28;5128665;27;20079;-74
2023/03/13 00:26:27;;;;;;;19.55;3.40;;;;;;;9.44;89.29;100126.13;5127599;27;20046;-74
2023/03/13 00:28:54;;;;;;;17.88;3.33;;;;;;;9.44;89.57;100120.00;5126033;27;20047;-75
2023/03/13 00:31:26;;;;;;;20.38;3.17;;;;;;;9.45;89.46;100119.94;5126747;27;20894;-75
2023/03/13 00:33:59;;;;;;;21.88;3.45;;;;;;;9.44;89.40;100120.00;5126895;27;20071;-74
2023/03/13 00:36:31;;;;;;;13.25;3.13;;;;;;;9.43;89.86;100113.00;5127785;27;20479;-77
2023/03/13 00:38:59;;;;;;;12.80;3.15;;;;;;;9.44;89.87;100107.72;5125633;27;20032;-76
2023/03/13 00:41:30;;;;;;;17.67;3.08;;;;;;;9.44;90.02;100098.94;5122371;27;20040;-76
2023/03/13 00:43:58;;;;;;;17.30;3.63;;;;;;;9.41;90.18;100099.91;5127587;27;20100;-78
2023/03/13 00:46:28;;;;;;;21.15;3.40;;;;;;;9.42;90.64;100100.75;5125560;27;20040;-77
2023/03/13 00:48:56;;;;;;;17.95;3.10;;;;;;;9.39;90.96;100101.75;5127445;27;20770;-78
2023/03/13 00:51:25;;;;;;;12.95;3.10;;;;;;;9.37;91.27;100082.53;5125073;27;20042;-80
2023/03/13 00:53:55;;;;;;;21.83;4.15;;;;;;;9.35;91.58;100088.75;5126420;27;20046;-78
2023/03/13 00:56:22;;;;;;;15.20;3.67;;;;;;;9.30;92.01;100086.31;5128438;27;20043;-78
2023/03/13 00:58:50;;;;;;;18.85;3.95;;;;;;;9.30;92.25;100076.66;5124993;27;20048;-79
2023/03/13 01:01:28;;;;;;;22.23;2.90;;;;;;;9.29;92.56;100074.06;5123790;27;20044;-79
2023/03/13 01:03:59;;;;;;;17.92;3.53;;;;;;;9.29;93.49;100069.69;5126118;27;20514;-75
2023/03/13 01:06:33;;;;;;;22.83;3.83;;;;;;;9.26;93.77;100051.38;5127255;27;20693;-76
2023/03/13 01:09:02;;;;;;;17.63;3.42;;;;;;;9.23;93.97;100051.47;5128004;27;20039;-76
2023/03/13 01:11:34;;;;;;;20.75;3.33;;;;;;;9.24;94.50;100044.47;5126638;27;20043;-76
2023/03/13 01:14:07;;;;;;;18.65;3.42;;;;;;;9.21;94.70;100034.91;5126777;27;20039;-76
2023/03/13 01:16:36;;;;;;;26.70;3.80;;;;;;;9.19;95.04;100036.75;5127578;27;20057;-76
2023/03/13 01:19:08;;;;;;;18.02;3.42;;;;;;;9.16;95.31;100021.91;5143808;27;20039;-75
2023/03/13 01:21:41;;;;;;;12.43;2.90;;;;;;;9.17;95.30;100013.13;5142041;27;20042;-76
2023/03/13 01:24:08;;;;;;;15.60;2.95;;;;;;;9.18;95.98;100003.47;5127235;27;20044;-76
2023/03/13 01:26:35;;;;;;;19.85;3.28;;;;;;;9.17;96.07;99999.13;5127414;27;20069;-75
2023/03/13 01:29:03;;;;;;;25.63;3.67;;;;;;;9.17;96.45;99993.88;5127648;27;20118;-76
2023/03/13 01:31:35;;;;;;;23.05;3.55;;;;;;;9.16;96.77;99982.47;5126680;27;20130;-76
2023/03/13 01:34:05;;;;;;;18.95;3.40;;;;;;;9.16;97.07;99973.75;5119942;27;20522;-76
2023/03/13 01:36:35;;;;;;;23.52;3.55;;;;;;;9.17;97.48;99968.41;5128559;27;20067;-75
2023/03/13 01:39:03;;;;;;;20.50;3.28;;;;;;;9.16;97.96;99963.22;5143120;27;20036;-77
2023/03/13 01:41:31;;;;;;;20.63;3.53;;;;;;;9.16;97.95;99958.81;5126046;27;20095;-78
2023/03/13 01:43:59;;;;;;;19.42;3.22;;;;;;;9.18;98.41;99956.13;5127918;27;20071;-77
2023/03/13 01:46:31;;;;;;;22.63;3.72;;;;;;;9.17;98.72;99947.38;5124413;27;20051;-76
2023/03/13 01:49:26;;;;;;;17.00;3.10;;;;;;;9.19;98.82;99943.84;5117295;27;20039;-77
2023/03/13 01:52:06;;;;;;;21.02;3.67;;;;;;;9.21;99.09;99936.75;5134201;27;20040;-78
2023/03/13 01:54:47;;;;;;;17.85;3.13;;;;;;;9.21;98.93;99928.84;5125617;27;20129;-78
2023/03/13 01:57:29;;;;;;;15.27;3.03;;;;;;;9.25;99.37;99926.03;5129631;27;20071;-78
2023/03/13 02:00:18;;;;;;;19.73;3.60;;;;;;;9.27;99.68;99932.09;5128578;27;20035;-79
2023/03/13 02:02:51;;;;;;;17.05;3.42;;;;;;;9.31;100.00;99915.28;5130147;27;20096;-77
2023/03/13 02:05:24;;;;;;;16.42;3.85;;;;;;;9.35;100.00;99909.91;5146033;27;20042;-77
2023/03/13 02:08:05;;;;;;;19.35;3.15;;;;;;;9.37;100.00;99898.38;5125405;27;20122;-78
2023/03/13 02:10:40;;;;;;;19.77;3.30;;;;;;;9.39;100.00;99888.66;5124863;27;20044;-78
2023/03/13 02:13:09;;;;;;;16.65;3.17;;;;;;;9.41;100.00;99891.25;5131755;27;20812;-78
2023/03/13 02:15:40;;;;;;;11.50;2.97;;;;;;;9.43;100.00;99884.13;5125895;27;20069;-77
2023/03/13 02:18:08;;;;;;;19.92;3.47;;;;;;;9.45;100.00;99879.66;5145243;27;20119;-77
2023/03/13 02:20:38;;;;;;;12.45;3.17;;;;;;;9.48;100.00;99877.75;5123128;27;20070;-75
2023/03/13 02:23:38;;;;;;;13.55;3.22;;;;;;;9.52;100.00;99867.97;5129653;27;20071;-74
2023/03/13 02:26:05;;;;;;;12.70;2.83;;;;;;;9.54;100.00;99850.34;5123509;27;20035;-74
2023/03/13 02:28:38;;;;;;;15.63;3.03;;;;;;;9.58;100.00;99854.56;5146426;27;20044;-74
2023/03/13 02:31:09;;;;;;;11.93;2.85;;;;;;;9.60;100.00;99847.47;5116901;27;20041;-74
2023/03/13 02:33:41;;;;;;;13.05;2.58;;;;;;;9.65;100.00;99849.91;5129601;27;20085;-74
2023/03/13 02:36:13;;;;;;;13.30;3.20;;;;;;;9.70;100.00;99837.41;5129625;27;20046;-73
2023/03/13 02:39:05;;;;;;;11.05;2.97;;;;;;;9.74;100.00;99827.59;5121016;27;21688;-75
2023/03/13 02:41:34;;;;;;;13.27;3.03;;;;;;;9.75;100.00;99814.38;5126119;27;20111;-75
2023/03/13 02:44:01;;;;;;;12.00;2.60;;;;;;;9.82;100.00;99799.16;5129117;27;20039;-74
2023/03/13 02:46:28;;;;;;;9.32;3.10;;;;;;;9.86;100.00;99786.75;5127884;27;20051;-74
2023/03/13 02:48:56;;;;;;;6.93;2.63;;;;;;;9.91;100.00;99782.97;5126935;27;20082;-75
2023/03/13 02:51:33;;;;;;;7.50;2.75;;;;;;;9.95;100.00;99781.91;5127729;27;20093;-75
2023/03/13 02:54:10;;;;;;;10.98;2.60;;;;;;;9.99;100.00;99797.56;5141417;27;20040;-74
2023/03/13 02:56:41;;;;;;;8.00;2.42;;;;;;;10.03;100.00;99785.97;5123052;27;20059;-75
2023/03/13 02:59:09;;;;;;;7.30;2.75;;;;;;;10.05;100.00;99787.63;5116134;27;20129;-75
2023/03/13 03:01:39;;;;;;;7.22;2.55;;;;;;;10.10;100.00;99804.06;5112851;27;20048;-76
2023/03/13 03:04:06;;;;;;;10.60;2.72;;;;;;;10.12;100.00;99782.94;5098635;27;20044;-74
2023/03/13 03:06:34;;;;;;;8.05;2.42;;;;;;;10.16;100.00;99781.00;5127782;27;20048;-75
2023/03/13 03:09:04;;;;;;;9.25;2.83;;;;;;;10.20;100.00;99791.34;5124797;27;20048;-74
2023/03/13 03:11:34;;;;;;;11.32;3.03;;;;;;;10.23;100.00;99795.59;5122570;27;20043;-75
2023/03/13 03:14:06;;;;;;;6.60;2.97;;;;;;;10.25;100.00;99799.88;5145915;27;20043;-74
2023/03/13 03:16:38;;;;;;;7.03;3.13;;;;;;;10.30;100.00;99798.81;5128673;27;20047;-74
2023/03/13 03:19:07;;;;;;;9.05;3.35;;;;;;;10.31;100.00;99792.63;5139510;27;20040;-74
2023/03/13 03:21:34;;;;;;;7.40;3.03;;;;;;;10.34;100.00;99787.19;5130431;27;20040;-74
2023/03/13 03:24:02;;;;;;;9.00;3.40;;;;;;;10.39;100.00;99785.25;5130881;27;20044;-77
2023/03/13 03:26:32;;;;;;;9.15;3.58;;;;;;;10.38;100.00;99794.91;5119612;27;20047;-79
2023/03/13 03:29:00;;;;;;;8.27;3.78;;;;;;;10.43;100.00;99792.06;5127894;27;20047;-79
2023/03/13 03:31:29;;;;;;;7.68;3.83;;;;;;;10.45;100.00;99784.97;5128611;27;20140;-78
2023/03/13 03:33:56;;;;;;;9.30;3.42;;;;;;;10.49;100.00;99776.00;5123926;27;20956;-80
2023/03/13 03:36:24;;;;;;;7.30;3.55;;;;;;;10.47;100.00;99788.38;5132126;27;20811;-78
2023/03/13 03:38:51;;;;;;;7.22;3.92;;;;;;;10.51;100.00;99783.81;5128183;27;20066;-74
2023/03/13 03:41:23;;;;;;;6.70;3.90;;;;;;;10.50;100.00;99776.84;5126553;27;20535;-74
2023/03/13 03:43:50;;;;;;;8.85;3.78;;;;;;;10.51;100.00;99768.88;5129399;27;20119;-74
2023/03/13 03:46:21;;;;;;;11.05;3.90;;;;;;;10.53;100.00;99772.28;5127501;27;20494;-74
2023/03/13 03:48:48;;;;;;;6.78;3.38;;;;;;;10.56;100.00;99769.50;5127260;27;20053;-74
2023/03/13 03:51:15;;;;;;;8.02;3.47;;;;;;;10.59;100.00;99763.22;5128103;27;20048;-76
2023/03/13 03:53:45;;;;;;;4.82;3.03;;;;;;;10.61;100.00;99771.91;5143118;27;20044;-74
2023/03/13 03:56:13;;;;;;;8.20;3.45;;;;;;;10.64;100.00;99769.16;5126689;27;20049;-74
2023/03/13 03:58:50;;;;;;;5.38;3.90;;;;;;;10.68;100.00;99760.16;5123490;27;20119;-75
2023/03/13 04:01:23;;;;;;;8.85;3.50;;;;;;;10.71;100.00;99761.81;5126935;27;20054;-74
2023/03/13 04:03:51;;;;;;;6.07;3.28;;;;;;;10.74;100.00;99764.28;5128674;27;20050;-75
2023/03/13 04:06:18;;;;;;;8.07;3.90;;;;;;;10.75;100.00;99765.97;5128711;27;20126;-74
2023/03/13 04:08:46;;;;;;;5.53;3.38;;;;;;;10.79;100.00;99757.00;5123403;27;20048;-75
2023/03/13 04:11:16;;;;;;;6.03;3.83;;;;;;;10.82;100.00;99761.28;5116589;27;20036;-75
2023/03/13 04:13:48;;;;;;;7.57;3.50;;;;;;;10.82;100.00;99751.59;5124848;27;20054;-74
2023/03/13 04:16:15;;;;;;;6.25;3.72;;;;;;;10.86;100.00;99749.66;5143276;27;20040;-74
2023/03/13 04:18:44;;;;;;;5.50;4.10;;;;;;;10.88;100.00;99751.28;5125644;27;20047;-75
2023/03/13 04:21:11;;;;;;;5.50;3.90;;;;;;;10.91;100.00;99750.28;5124946;27;20040;-76
2023/03/13 04:23:45;;;;;;;4.68;3.83;;;;;;;10.92;100.00;99745.88;5139123;27;20123;-75
2023/03/13 04:26:14;;;;;;;5.35;3.78;;;;;;;10.96;100.00;99736.84;5125319;27;20051;-75
2023/03/13 04:28:41;;;;;;;6.20;4.07;;;;;;;10.98;100.00;99733.25;5127412;27;20040;-76
2023/03/13 04:31:12;;;;;;;5.43;4.30;;;;;;;11.00;100.00;99733.16;5132220;27;20036;-75
2023/03/13 04:34:02;;;;;;;7.15;4.80;;;;;;;11.05;100.00;99738.19;5144099;27;20134;-75
2023/03/13 04:36:41;;;;;;;6.32;4.57;;;;;;;11.07;100.00;99734.53;5124926;27;20740;-76
2023/03/13 04:39:08;;;;;;;5.90;4.43;;;;;;;11.09;100.00;99735.31;5123526;27;20039;-76
2023/03/13 04:42:02;;;;;;;5.63;4.68;;;;;;;11.12;100.00;99737.81;5120364;27;20103;-75
2023/03/13 04:44:47;;;;;;;7.07;4.75;;;;;;;11.15;100.00;99734.16;5113281;27;20039;-74
2023/03/13 04:47:32;;;;;;;7.90;5.05;;;;;;;11.17;100.00;99719.13;5127959;27;20503;-74
2023/03/13 04:50:31;;;;;;;10.15;5.03;;;;;;;11.19;100.00;99699.63;5097170;27;20121;-74
2023/03/13 04:53:16;;;;;;;13.93;4.78;;;;;;;11.24;100.00;99695.94;5125850;27;20035;-74
2023/03/13 04:56:19;;;;;;;6.75;5.35;;;;;;;11.28;100.00;99689.53;5123860;27;20862;-76
2023/03/13 04:59:17;;;;;;;5.97;4.90;;;;;;;11.29;100.00;99685.97;5127232;27;20047;-74
2023/03/13 05:01:56;;;;;;;7.13;5.07;;;;;;;11.32;100.00;99688.47;5127286;27;20086;-74
2023/03/13 05:04:52;;;;;;;8.88;4.95;;;;;;;11.32;100.00;99681.38;5068800;27;20057;-75
2023/03/13 05:07:38;;;;;;;8.52;5.20;;;;;;;11.34;100.00;99676.06;5117511;27;20090;-75
2023/03/13 05:10:12;;;;;;;8.77;4.97;;;;;;;11.35;100.00;99680.38;5142158;27;20047;-74
2023/03/13 05:13:11;;;;;;;10.25;4.95;;;;;;;11.38;100.00;99682.03;5092225;27;20120;-75
2023/03/13 05:15:51;;;;;;;6.00;4.55;;;;;;;11.39;100.00;99676.66;5117046;27;20051;-75
2023/03/13 05:18:38;;;;;;;7.82;5.18;;;;;;;11.42;100.00;99676.50;5128867;27;20043;-74
2023/03/13 05:21:23;;;;;;;7.82;4.97;;;;;;;11.44;100.00;99669.34;5121415;27;20137;-74
2023/03/13 05:23:59;;;;;;;6.68;4.80;;;;;;;11.44;100.00;99661.44;5126696;27;20910;-74
2023/03/13 05:26:38;;;;;;;8.23;4.70;;;;;;;11.46;100.00;99659.56;5125008;27;20531;-75
2023/03/13 05:29:23;;;;;;;8.82;4.80;;;;;;;11.49;100.00;99653.28;5127685;27;20040;-74
2023/03/13 05:32:11;;;;;;;7.47;4.40;;;;;;;11.48;100.00;99647.13;5124921;27;20052;-75
2023/03/13 05:34:54;;;;;;;9.02;4.70;;;;;;;11.50;100.00;99655.81;5121829;27;20056;-74
2023/03/13 05:37:57;;;;;;;7.07;4.88;;;;;;;11.55;100.00;99657.38;5110696;27;20044;-76
2023/03/13 05:40:31;;;;;;;6.78;3.90;;;;;;;11.57;100.00;99647.56;5119371;27;20133;-78
2023/03/13 05:43:21;;;;;;;8.93;4.38;;;;;;;11.64;100.00;99647.16;5106913;27;20064;-76
2023/03/13 05:46:07;;;;;;;6.35;4.00;;;;;;;11.70;100.00;99656.53;5126324;27;20591;-76
2023/03/13 05:48:51;;;;;;;6.57;3.50;;;;;;;11.77;100.00;99659.72;5126135;27;20036;-76
2023/03/13 05:51:50;;;;;;;8.52;3.53;;;;;;;11.83;100.00;99659.38;5114270;27;20126;-77
2023/03/13 05:54:37;;;;;;;6.45;3.70;;;;;;;11.89;100.00;99663.47;5127375;27;20040;-76
2023/03/13 05:57:23;;;;;;;6.43;3.45;;;;;;;11.94;100.00;99661.44;5129896;27;20054;-76
2023/03/13 06:00:09;;;;;;;5.07;3.17;;;;;;;11.99;99.97;99655.94;5123489;27;20173;-76
2023/03/13 06:02:43;;;;;;;5.20;2.58;;;;;;;12.01;99.92;99661.97;5133371;27;20462;-75
2023/03/13 06:05:16;;;;;;;7.43;2.83;;;;;;;12.03;100.00;99658.31;5099821;27;20050;-75
2023/03/13 06:07:44;;;;;;;9.13;2.75;;;;;;;12.08;99.63;99668.63;5115275;27;20040;-77
2023/03/13 06:10:11;;;;;;;5.53;2.75;;;;;;;12.13;99.32;99663.94;5120493;27;20036;-77
2023/03/13 06:12:38;;;;;;;5.53;2.70;;;;;;;12.20;98.75;99660.03;5120373;27;20812;-77
2023/03/13 06:15:09;;;;;;;7.18;2.35;;;;;;;12.24;98.49;99656.25;5133169;27;20101;-77
2023/03/13 06:17:58;;;;;;;4.72;2.30;;;;;;;12.33;97.17;99659.31;5124013;27;20090;-77
2023/03/13 06:20:25;;;;;;;6.45;2.83;;;;;;;12.37;97.08;99659.06;5122857;27;20405;-77
2023/03/13 06:22:52;;;;;;;5.78;2.47;;;;;;;12.39;97.01;99664.28;5122935;27;20809;-77
2023/03/13 06:25:19;;;;;;;7.50;2.25;;;;;;;12.43;96.52;99669.31;5121195;27;20036;-78
2023/03/13 06:27:46;;;;;;;4.47;2.08;;;;;;;12.45;96.53;99656.00;5115249;27;20496;-77
2023/03/13 06:30:13;;;;;;;10.95;2.25;;;;;;;12.49;95.85;99659.31;5124212;27;20165;-76
2023/03/13 06:32:40;;;;;;;7.88;2.08;;;;;;;12.49;95.49;99660.16;5130428;27;20082;-77
2023/03/13 06:35:08;;;;;;;6.43;2.30;;;;;;;12.54;94.64;99659.91;5109017;27;20080;-75
2023/03/13 06:37:35;;;;;;;6.65;2.20;;;;;;;12.51;94.34;99650.38;5119497;27;20168;-74
2023/03/13 06:40:03;;;;;;;5.93;2.20;;;;;;;12.49;94.41;99646.97;5121958;27;20060;-74
2023/03/13 06:42:30;;;;;;;4.85;2.47;;;;;;;12.49;93.40;99644.31;5128505;27;20115;-74
2023/03/13 06:44:57;;;;;;;6.88;2.45;;;;;;;12.51;93.27;99646.84;5132143;27;20117;-75
2023/03/13 06:47:24;;;;;;;6.30;2.47;;;;;;;12.51;93.58;99655.66;5129805;27;20043;-76
2023/03/13 06:49:51;;;;;;;7.25;2.22;;;;;;;12.55;92.61;99653.69;5129802;27;20095;-75
2023/03/13 06:52:18;;;;;;;8.43;1.90;;;;;;;12.55;92.66;99651.88;5129253;27;20050;-75
2023/03/13 06:54:46;;;;;;;5.72;2.33;;;;;;;12.56;92.45;99648.28;5128224;27;20843;-74
2023/03/13 06:57:13;;;;;;;6.15;2.13;;;;;;;12.56;92.61;99626.31;5128783;27;20056;-73
2023/03/13 06:59:40;;;;;;;7.55;2.38;;;;;;;12.58;92.06;99646.41;5128672;27;20101;-74
2023/03/13 07:02:11;;;;;;;4.72;2.15;;;;;;;12.62;91.74;99662.09;5130275;27;20128;-74
2023/03/13 07:04:38;;;;;;;5.50;2.00;;;;;;;12.63;90.76;99651.44;5142668;27;20043;-75
2023/03/13 07:07:11;;;;;;;7.95;2.25;;;;;;;12.62;91.51;99641.81;5137988;27;20047;-74
2023/03/13 07:09:51;;;;;;;7.30;1.83;;;;;;;12.63;90.87;99651.44;5123973;27;20971;-75
2023/03/13 07:12:18;;;;;;;6.68;2.40;;;;;;;12.62;90.68;99641.81;5118385;27;20075;-75
2023/03/13 07:14:45;;;;;;;4.75;1.90;;;;;;;12.63;90.86;99638.22;5122885;27;20123;-74
2023/03/13 07:17:12;;;;;;;4.30;1.80;;;;;;;12.67;90.63;99641.53;5130445;27;20139;-75
2023/03/13 07:19:39;;;;;;;6.25;2.78;;;;;;;12.70;90.43;99647.50;5129340;27;20031;-75
2023/03/13 07:22:06;;;;;;;5.00;2.10;;;;;;;12.75;89.75;99639.28;5137158;27;20836;-75
2023/03/13 07:24:33;;;;;;;5.13;1.67;;;;;;;12.75;89.64;99639.28;5128558;27;20081;-74
2023/03/13 07:27:00;;;;;;;6.82;2.03;;;;;;;12.77;89.79;99636.56;5134461;27;20039;-75
2023/03/13 07:29:33;;;;;;;6.60;1.92;;;;;;;12.79;89.56;99642.59;5126689;27;20107;-74
2023/03/13 07:32:00;;;;;;;5.10;2.22;;;;;;;12.82;89.18;99637.16;5145424;27;20476;-76
2023/03/13 07:34:27;;;;;;;6.70;1.75;;;;;;;12.84;89.12;99648.50;5127383;27;20039;-75
2023/03/13 07:36:54;;;;;;;9.10;2.00;;;;;;;12.85;89.06;99636.97;5133794;27;20042;-75
2023/03/13 07:39:22;;;;;;;14.55;2.22;;;;;;;12.89;88.90;99630.53;5129956;27;20496;-75
2023/03/13 07:41:48;;;;;;;6.00;1.70;;;;;;;12.93;88.91;99636.50;5136100;27;20043;-75
2023/03/13 07:44:17;;;;;;;4.32;2.05;;;;;;;12.95;89.23;99631.97;5109277;27;20155;-75
2023/03/13 07:46:47;;;;;;;7.97;2.05;;;;;;;12.97;88.74;99635.38;5130196;27;20687;-76
2023/03/13 07:49:14;;;;;;;11.80;2.10;;;;;;;13.00;88.97;99624.63;5121554;27;20040;-73
2023/03/13 07:51:41;;;;;;;8.07;2.35;;;;;;;13.03;88.98;99635.88;5117427;27;20040;-73
2023/03/13 07:54:10;;;;;;;6.10;1.65;;;;;;;13.07;88.36;99625.13;5122283;27;20213;-75
2023/03/13 07:56:37;;;;;;;6.25;1.77;;;;;;;13.10;88.19;99635.50;5130530;27;20764;-74
2023/03/13 07:59:05;;;;;;;4.35;1.63;;;;;;;13.18;87.60;99635.88;5127538;27;20043;-74
2023/03/13 08:01:33;;;;;;;9.13;2.40;;;;;;;13.28;86.76;99633.53;5127782;27;20146;-74
2023/03/13 08:04:00;;;;;;;7.00;1.80;;;;;;;13.34;86.46;99634.03;5128521;27;20039;-75
2023/03/13 08:06:31;;;;;;;6.40;1.90;;;;;;;13.39;86.60;99625.84;5127899;27;20083;-75
2023/03/13 08:09:00;;;;;;;8.98;1.75;;;;;;;13.36;86.92;99626.84;5127241;27;20097;-75
2023/03/13 08:11:28;;;;;;;7.57;1.80;;;;;;;13.36;86.50;99623.34;5112743;27;20052;-77
2023/03/13 08:13:56;;;;;;;7.68;2.50;;;;;;;13.33;86.45;99624.38;5128724;27;20394;-75
2023/03/13 08:16:30;;;;;;;7.43;1.55;;;;;;;13.30;86.66;99637.78;5129492;27;20073;-75
2023/03/13 08:18:58;;;;;;;6.35;2.10;;;;;;;13.32;86.09;99645.66;5129859;27;20663;-75
2023/03/13 08:21:30;;;;;;;5.50;1.98;;;;;;;13.34;86.71;99635.81;5128933;27;20128;-75
2023/03/13 08:24:05;;;;;;;6.32;1.90;;;;;;;13.48;86.11;99621.78;5121789;27;20478;-77
2023/03/13 08:26:36;;;;;;;6.07;2.00;;;;;;;13.66;85.47;99625.06;5122972;27;20050;-76
2023/03/13 08:29:08;;;;;;;8.73;2.00;;;;;;;13.85;85.33;99635.34;5136563;27;20052;-75
2023/03/13 08:31:46;;;;;;;7.20;2.42;;;;;;;13.97;84.46;99626.63;5128363;27;20027;-75
2023/03/13 08:34:15;;;;;;;9.38;1.80;;;;;;;14.13;84.40;99623.84;5127294;27;20040;-75
2023/03/13 08:36:43;;;;;;;5.78;1.88;;;;;;;14.23;83.83;99608.19;5129241;27;20040;-75
2023/03/13 08:39:14;;;;;;;6.25;2.05;;;;;;;14.28;83.46;99605.22;5127202;27;20123;-75
2023/03/13 08:41:42;;;;;;;6.25;1.88;;;;;;;14.33;83.28;99602.28;5116771;27;20056;-76
2023/03/13 08:44:15;;;;;;;7.10;1.58;;;;;;;14.35;83.47;99595.91;5127042;27;20039;-75
2023/03/13 08:46:43;;;;;;;8.07;1.73;;;;;;;14.40;82.99;99599.13;5128483;27;20900;-75
2023/03/13 08:49:12;;;;;;;5.47;1.60;;;;;;;14.38;83.00;99610.78;5129102;27;20506;-75
2023/03/13 08:51:39;;;;;;;6.63;1.65;;;;;;;14.36;82.42;99605.56;5128274;27;20521;-77
2023/03/13 08:54:06;;;;;;;7.63;1.70;;;;;;;14.32;81.92;99601.44;5122471;27;20039;-75
2023/03/13 08:56:33;;;;;;;3.90;1.70;;;;;;;14.25;82.36;99602.78;5127910;27;20506;-76
2023/03/13 08:59:03;;;;;;;4.40;1.70;;;;;;;14.22;83.00;99605.66;5128766;27;20050;-75
2023/03/13 09:01:34;;;;;;;7.05;1.70;;;;;;;14.25;81.65;99600.13;5129128;27;20070;-75
2023/03/13 09:04:03;;;;;;;5.55;1.75;;;;;;;14.26;81.30;99584.13;5127247;27;20044;-75
2023/03/13 09:06:33;;;;;;;8.70;1.60;;;;;;;14.33;81.01;99589.03;5129722;27;20151;-75
2023/03/13 09:09:01;;;;;;;4.82;1.30;;;;;;;14.32;81.65;99582.03;5126347;27;20043;-74
2023/03/13 09:11:28;;;;;;;4.95;1.42;;;;;;;14.35;80.77;99579.19;5128861;27;20034;-74
2023/03/13 09:13:58;;;;;;;4.38;1.40;;;;;;;14.37;79.91;99587.88;5128160;27;20044;-77
2023/03/13 09:16:29;;;;;;;6.45;1.63;;;;;;;14.40;79.75;99582.34;5129050;27;20648;-75
2023/03/13 09:18:58;;;;;;;4.88;1.48;;;;;;;14.48;79.53;99603.06;5128447;27;20097;-76
2023/03/13 09:21:31;;;;;;;8.70;1.30;;;;;;;14.56;78.82;99598.97;5129041;27;20039;-75
2023/03/13 09:24:00;;;;;;;4.03;1.08;;;;;;;14.68;78.51;99580.56;5126788;27;20073;-76
2023/03/13 09:26:28;;;;;;;3.25;1.20;;;;;;;14.87;77.65;99566.88;5128553;27;20048;-77
2023/03/13 09:28:56;;;;;;;5.20;1.35;;;;;;;15.05;76.54;99572.72;5128702;27;20043;-76
2023/03/13 09:31:28;;;;;;;6.78;1.60;;;;;;;15.15;76.67;99578.25;5128296;27;20055;-76
2023/03/13 09:33:56;;;;;;;3.42;1.30;;;;;;;15.14;76.29;99560.63;5128595;27;20044;-76
2023/03/13 09:36:24;;;;;;;4.72;1.95;;;;;;;15.14;75.92;99565.94;5129047;27;20806;-75
2023/03/13 09:38:54;;;;;;;3.55;1.20;;;;;;;15.25;75.49;99550.13;5125889;27;20048;-75
2023/03/13 09:41:37;;;;;;;3.55;1.30;;;;;;;15.31;75.56;99547.00;5126431;27;20039;-75
2023/03/13 09:44:18;;;;;;;4.68;1.38;;;;;;;15.37;75.45;99553.69;5130628;27;20121;-76
2023/03/13 09:47:04;;;;;;;5.50;1.27;;;;;;;15.50;76.16;99549.22;5125941;27;20032;-75
2023/03/13 09:50:00;;;;;;;3.47;1.27;;;;;;;15.76;74.90;99543.81;5129169;27;20049;-75
2023/03/13 09:52:39;;;;;;;5.43;1.65;;;;;;;15.87;74.64;99545.75;5129521;27;20040;-75
2023/03/13 09:55:20;;;;;;;5.43;1.30;;;;;;;15.96;75.54;99525.59;5127975;27;20122;-75
2023/03/13 09:57:54;;;;;;;4.97;1.30;;;;;;;15.98;75.65;99521.88;5128870;27;20499;-75
2023/03/13 10:00:39;;;;;;;4.10;1.30;;;;;;;16.03;75.53;99516.19;5128465;27;20479;-76
2023/03/13 10:03:28;;;;;;;4.15;1.60;;;;;;;16.19;72.39;99513.25;5119417;27;20120;-76
2023/03/13 10:06:04;;;;;;;5.28;1.35;;;;;;;16.25;73.11;99507.50;5122331;27;20784;-76
2023/03/13 10:08:34;;;;;;;3.03;1.00;;;;;;;16.24;72.75;99496.94;5125640;27;20070;-76
2023/03/13 10:11:34;;;;;;;5.05;1.90;;;;;;;16.41;72.30;99495.69;5127696;27;20118;-75
2023/03/13 10:14:25;;;;;;;4.55;1.20;;;;;;;16.44;72.41;99501.59;5128287;27;20047;-75
2023/03/13 10:17:31;;;;;;;4.50;1.00;;;;;;;16.48;70.79;99517.34;5129554;27;20552;-76
2023/03/13 10:20:21;;;;;;;4.65;1.20;;;;;;;16.46;69.41;99506.84;5137449;27;20043;-76
2023/03/13 10:23:14;;;;;;;3.75;1.25;;;;;;;16.42;71.03;99500.03;5129923;27;20039;-77
2023/03/13 10:25:41;;;;;;;4.22;1.20;;;;;;;16.43;69.93;99494.59;5130961;27;20051;-75
2023/03/13 10:28:15;;;;;;;2.67;1.00;;;;;;;16.44;69.04;99495.44;5131274;27;20036;-76
2023/03/13 10:30:47;;;;;;;;;;;;;;;16.49;69.15;99487.13;5132476;27;20043;-75
2023/03/13 10:33:24;;;;;;;3.55;0.98;;;;;;;16.58;67.80;99481.91;5130437;27;19936;-76
2023/03/13 10:36:12;;;;;;;1.60;0.80;;;;;;;16.75;67.95;99475.31;5130945;27;20044;-75
2023/03/13 10:38:52;;;;;;;6.95;1.20;;;;;;;16.89;67.90;99463.56;5126503;27;20046;-76
2023/03/13 10:41:30;;;;;;;2.95;0.88;;;;;;;16.99;65.70;99444.28;5144568;27;20112;-76
2023/03/13 10:44:03;;;;;;;3.05;1.23;;;;;;;17.02;65.05;99473.28;5129426;27;20040;-76
2023/03/13 10:46:34;;;;;;;2.28;1.00;;;;;;;17.03;64.39;99464.34;5131228;27;20043;-76
2023/03/13 10:49:23;;;;;;;3.47;0.90;;;;;;;17.03;65.86;99464.34;5131825;27;20427;-76
2023/03/13 10:51:58;;;;;;;3.10;0.90;;;;;;;17.11;65.19;99472.56;5112189;27;20051;-75
2023/03/13 10:54:36;;;;;;;3.05;0.80;;;;;;;17.26;64.40;99467.81;5130236;27;20040;-77
2023/03/13 10:57:30;;;;;;;4.75;0.70;;;;;;;17.42;62.52;99458.59;5129972;27;20043;-76
2023/03/13 10:59:58;;;;;;;4.30;0.85;;;;;;;17.58;62.32;99455.53;5135241;27;20043;-76
2023/03/13 11:02:38;;;;;;;2.88;0.90;;;;;;;17.63;62.40;99442.69;5141624;27;20036;-76
2023/03/13 11:05:29;;;;;;;3.35;0.85;;;;;;;17.64;61.66;99449.69;5131019;27;20108;-75
2023/03/13 11:07:56;;;;;;;4.43;1.20;;;;;;;17.68;62.24;99440.50;5124129;27;20044;-76
2023/03/13 11:10:28;;;;;;;2.33;1.50;;;;;;;17.82;61.96;99431.34;5129042;27;20122;-75
2023/03/13 11:12:58;;;;;;;3.92;0.98;;;;;;;17.83;61.58;99452.53;5130215;27;20778;-77
2023/03/13 11:15:38;;;;;;;4.10;0.90;;;;;;;17.82;61.44;99440.19;5130306;27;20039;-76
2023/03/13 11:18:28;;;;;;;1.42;0.68;;;;;;;17.80;61.34;99430.63;5109870;27;20044;-76
2023/03/13 11:20:58;;;;;;;1.90;0.80;;;;;;;17.77;61.73;99425.53;5121730;27;20044;-75
2023/03/13 11:23:52;;;;;;;2.05;0.60;;;;;;;17.88;61.56;99430.84;5128800;27;20126;-76
2023/03/13 11:26:37;;;;;;;1.95;0.60;;;;;;;17.83;61.42;99436.53;5126733;27;20047;-76
2023/03/13 11:29:25;;;;;;;3.28;0.80;;;;;;;17.82;61.12;99429.53;5129974;27;20039;-74
2023/03/13 11:32:15;;;;;;;3.28;0.90;;;;;;;17.84;62.13;99416.09;5129746;27;20047;-76
2023/03/13 11:34:56;;;;;;;2.17;0.75;;;;;;;17.83;61.42;99431.22;5136247;27;20047;-76
2023/03/13 11:37:30;;;;;;;5.43;1.38;;;;;;;17.79;62.76;99424.47;5129760;27;20054;-76
2023/03/13 11:40:25;;;;;;;3.50;0.70;;;;;;;17.84;61.00;99432.06;5129570;27;20047;-75
2023/03/13 11:43:15;;;;;;;1.48;0.60;;;;;;;17.86;61.00;99422.09;5130481;27;20059;-75
2023/03/13 11:46:15;;;;;;;6.68;0.80;;;;;;;17.89;59.69;99411.19;5130862;27;20051;-76
2023/03/13 11:49:05;;;;;;;2.55;0.77;;;;;;;17.81;60.10;99416.34;5130422;27;20071;-76
2023/03/13 11:52:23;;;;;;;4.93;0.95;;;;;;;17.70;60.02;99401.25;5130453;27;20050;-76
2023/03/13 11:55:28;;;;;;;2.25;0.80;;;;;;;17.59;61.12;99409.28;5099306;27;20696;-75
2023/03/13 11:58:09;;;;;;;;;;;;;;;17.50;61.35;99425.03;5130881;27;20043;-75
2023/03/13 12:00:46;;;;;;;1.10;0.60;;;;;;;17.63;61.44;99418.69;5130219;27;19924;-76
2023/03/13 12:03:31;;;;;;;4.20;1.00;;;;;;;17.75;61.37;99393.69;5129937;27;20054;-76